createdAt,value
2017-02-10T00:00:07.554Z,956.88
2017-02-10T00:01:08.117Z,956.87
2017-02-10T00:02:07.664Z,956.84
2017-02-10T00:03:08.258Z,956.84
2017-02-10T00:04:07.811Z,956.82
2017-02-10T00:05:07.464Z,956.87
2017-02-10T00:06:07.997Z,956.83
2017-02-10T00:07:07.473Z,956.85
2017-02-10T00:08:27.620Z,956.90
2017-02-10T00:09:08.163Z,956.83
2017-02-10T00:10:07.716Z,956.82
2017-02-10T00:11:08.218Z,956.81
2017-02-10T00:12:07.741Z,956.83
2017-02-10T00:13:08.265Z,956.86
2017-02-10T00:14:07.792Z,956.84
2017-02-10T00:15:07.617Z,956.85
2017-02-10T00:16:08.477Z,956.85
2017-02-10T00:17:08.108Z,956.87
2017-02-10T00:18:07.700Z,956.85
2017-02-10T00:19:08.249Z,956.79
2017-02-10T00:20:07.815Z,956.87
2017-02-10T00:21:07.331Z,956.83
2017-02-10T00:22:08.182Z,956.79
2017-02-10T00:23:07.705Z,956.83
2017-02-10T00:24:08.289Z,956.83
2017-02-10T00:25:07.856Z,956.81
2017-02-10T00:26:07.417Z,956.86
2017-02-10T00:27:08.214Z,956.81
2017-02-10T00:28:07.803Z,956.82
2017-02-10T00:29:07.292Z,956.80
2017-02-10T00:30:07.851Z,956.77
2017-02-10T00:31:07.422Z,956.76
2017-02-10T00:32:07.982Z,956.74
2017-02-10T00:33:07.509Z,956.74
2017-02-10T00:34:08.011Z,956.73
2017-02-10T00:35:07.541Z,956.70
2017-02-10T00:36:08.160Z,956.70
2017-02-10T00:37:07.659Z,956.71
2017-02-10T00:38:08.618Z,956.73
2017-02-10T00:39:08.320Z,956.71
2017-02-10T00:40:07.798Z,956.69
2017-02-10T00:41:07.331Z,956.72
2017-02-10T00:42:07.869Z,956.69
2017-02-10T00:43:07.315Z,956.70
2017-02-10T00:44:07.887Z,956.70
2017-02-10T00:45:07.349Z,956.68
2017-02-10T00:46:27.527Z,956.71
2017-02-10T00:47:08.142Z,956.68
2017-02-10T00:48:07.952Z,956.66
2017-02-10T00:49:07.748Z,956.61
2017-02-10T00:50:08.327Z,956.62
2017-02-10T00:51:07.846Z,956.62
2017-02-10T00:52:07.335Z,956.60
2017-02-10T00:53:07.876Z,956.57
2017-02-10T00:54:07.388Z,956.57
2017-02-10T00:55:07.884Z,956.58
2017-02-10T00:56:07.368Z,956.61
2017-02-10T00:57:07.867Z,956.60
2017-02-10T00:58:07.519Z,956.63
2017-02-10T00:59:08.105Z,956.58
2017-02-10T01:00:07.657Z,956.55
2017-02-10T01:01:08.141Z,956.58
2017-02-10T01:02:07.590Z,956.54
2017-02-10T01:03:08.066Z,956.54
2017-02-10T01:04:08.276Z,956.52
2017-02-10T01:05:08.126Z,956.59
2017-02-10T01:06:07.640Z,956.51
2017-02-10T01:07:08.439Z,956.56
2017-02-10T01:08:08.042Z,956.60
2017-02-10T01:09:07.890Z,956.59
2017-02-10T01:10:07.794Z,956.64
2017-02-10T01:11:07.441Z,956.60
2017-02-10T01:12:08.036Z,956.59
2017-02-10T01:13:34.867Z,956.55
2017-02-10T01:14:07.449Z,956.55
2017-02-10T01:15:08.104Z,956.58
2017-02-10T01:16:07.608Z,956.56
2017-02-10T01:17:08.249Z,956.56
2017-02-10T01:18:07.982Z,956.58
2017-02-10T01:19:07.472Z,956.59
2017-02-10T01:20:07.569Z,956.57
2017-02-10T01:21:08.086Z,956.58
2017-02-10T01:22:07.936Z,956.59
2017-02-10T01:23:07.731Z,956.58
2017-02-10T01:24:08.257Z,956.58
2017-02-10T01:25:08.150Z,956.58
2017-02-10T01:26:07.850Z,956.59
2017-02-10T01:27:07.406Z,956.59
2017-02-10T01:28:07.848Z,956.61
2017-02-10T01:29:07.790Z,956.62
2017-02-10T01:30:07.372Z,956.60
2017-02-10T01:31:08.195Z,956.60
2017-02-10T01:32:07.769Z,956.61
2017-02-10T01:33:07.338Z,956.58
2017-02-10T01:34:07.362Z,956.59
2017-02-10T01:35:07.984Z,956.60
2017-02-10T01:36:07.520Z,956.58
2017-02-10T01:37:07.799Z,956.59
2017-02-10T01:38:07.227Z,956.56
2017-02-10T01:39:07.600Z,956.56
2017-02-10T01:40:08.285Z,956.59
2017-02-10T01:41:07.914Z,956.60
2017-02-10T01:42:07.629Z,956.52
2017-02-10T01:43:08.393Z,956.57
2017-02-10T01:44:07.939Z,956.58
2017-02-10T01:45:07.545Z,956.56
2017-02-10T01:46:08.112Z,956.51
2017-02-10T01:47:07.635Z,956.54
2017-02-10T01:48:08.209Z,956.53
2017-02-10T01:49:08.057Z,956.50
2017-02-10T01:50:07.627Z,956.54
2017-02-10T01:51:08.481Z,956.52
2017-02-10T01:52:08.202Z,956.50
2017-02-10T01:53:07.757Z,956.52
2017-02-10T01:54:08.212Z,956.50
2017-02-10T01:55:07.675Z,956.49
2017-02-10T01:56:08.249Z,956.48
2017-02-10T01:57:07.958Z,956.52
2017-02-10T01:58:07.620Z,956.50
2017-02-10T01:59:08.088Z,956.48
2017-02-10T02:00:08.757Z,956.50
2017-02-10T02:01:08.307Z,956.47
2017-02-10T02:02:08.111Z,956.49
2017-02-10T02:03:07.734Z,956.53
2017-02-10T02:04:08.248Z,956.49
2017-02-10T02:05:07.737Z,956.55
2017-02-10T02:06:08.117Z,956.51
2017-02-10T02:07:07.655Z,956.50
2017-02-10T02:08:08.425Z,956.47
2017-02-10T02:09:07.858Z,956.51
2017-02-10T02:10:07.560Z,956.54
2017-02-10T02:11:08.178Z,956.51
2017-02-10T02:12:07.918Z,956.52
2017-02-10T02:13:07.807Z,956.51
2017-02-10T02:14:07.385Z,956.52
2017-02-10T02:15:08.259Z,956.56
2017-02-10T02:16:07.865Z,956.50
2017-02-10T02:17:07.552Z,956.50
2017-02-10T02:18:08.162Z,956.50
2017-02-10T02:19:07.694Z,956.52
2017-02-10T02:20:07.371Z,956.56
2017-02-10T02:21:07.976Z,956.52
2017-02-10T02:22:07.489Z,956.53
2017-02-10T02:23:08.049Z,956.57
2017-02-10T02:24:07.650Z,956.53
2017-02-10T02:25:07.663Z,956.50
2017-02-10T02:26:07.991Z,956.55
2017-02-10T02:27:07.571Z,956.53
2017-02-10T02:28:08.204Z,956.48
2017-02-10T02:29:07.745Z,956.52
2017-02-10T02:30:08.428Z,956.56
2017-02-10T02:31:08.024Z,956.59
2017-02-10T02:32:07.662Z,956.57
2017-02-10T02:33:08.515Z,956.53
2017-02-10T02:34:08.094Z,956.55
2017-02-10T02:35:07.623Z,956.54
2017-02-10T02:36:08.592Z,956.53
2017-02-10T02:37:08.035Z,956.57
2017-02-10T02:38:07.933Z,956.54
2017-02-10T02:39:07.847Z,956.59
2017-02-10T02:40:07.395Z,956.54
2017-02-10T02:41:08.181Z,956.61
2017-02-10T02:42:07.718Z,956.50
2017-02-10T02:43:07.218Z,956.54
2017-02-10T02:44:08.162Z,956.53
2017-02-10T02:45:07.668Z,956.55
2017-02-10T02:46:08.315Z,956.52
2017-02-10T02:47:07.851Z,956.55
2017-02-10T02:48:08.238Z,956.49
2017-02-10T02:49:07.793Z,956.55
2017-02-10T02:50:07.497Z,956.54
2017-02-10T02:51:07.945Z,956.55
2017-02-10T02:52:07.869Z,956.55
2017-02-10T02:53:07.352Z,956.56
2017-02-10T02:54:07.885Z,956.51
2017-02-10T02:55:07.364Z,956.56
2017-02-10T02:56:09.004Z,956.55
2017-02-10T02:57:07.716Z,956.53
2017-02-10T02:58:08.336Z,956.55
2017-02-10T02:59:07.860Z,956.54
2017-02-10T03:00:07.373Z,956.53
2017-02-10T03:01:08.269Z,956.49
2017-02-10T03:02:07.739Z,956.51
2017-02-10T03:03:08.349Z,956.46
2017-02-10T03:04:07.817Z,956.49
2017-02-10T03:05:07.332Z,956.47
2017-02-10T03:06:08.140Z,956.49
2017-02-10T03:07:07.696Z,956.53
2017-02-10T03:08:08.271Z,956.55
2017-02-10T03:09:07.872Z,956.55
2017-02-10T03:10:07.473Z,956.61
2017-02-10T03:11:08.336Z,956.55
2017-02-10T03:12:07.983Z,956.55
2017-02-10T03:13:08.147Z,956.56
2017-02-10T03:14:07.669Z,956.52
2017-02-10T03:15:08.253Z,956.49
2017-02-10T03:16:08.018Z,956.50
2017-02-10T03:17:07.635Z,956.46
2017-02-10T03:18:08.266Z,956.48
2017-02-10T03:19:07.804Z,956.49
2017-02-10T03:20:07.346Z,956.49
2017-02-10T03:21:07.866Z,956.49
2017-02-10T03:22:07.395Z,956.47
2017-02-10T03:23:07.854Z,956.48
2017-02-10T03:24:07.375Z,956.50
2017-02-10T03:25:08.012Z,956.48
2017-02-10T03:26:07.493Z,956.48
2017-02-10T03:27:08.088Z,956.46
2017-02-10T03:28:07.830Z,956.42
2017-02-10T03:29:07.294Z,956.44
2017-02-10T03:30:27.566Z,956.50
2017-02-10T03:31:08.026Z,956.49
2017-02-10T03:32:07.448Z,956.49
2017-02-10T03:33:08.010Z,956.49
2017-02-10T03:34:07.585Z,956.51
2017-02-10T03:35:08.186Z,956.47
2017-02-10T03:36:07.755Z,956.46
2017-02-10T03:37:07.193Z,956.42
2017-02-10T03:38:07.666Z,956.44
2017-02-10T03:39:08.166Z,956.50
2017-02-10T03:40:07.815Z,956.51
2017-02-10T03:41:07.543Z,956.50
2017-02-10T03:42:08.100Z,956.49
2017-02-10T03:43:07.686Z,956.45
2017-02-10T03:44:07.745Z,956.48
2017-02-10T03:45:08.503Z,956.46
2017-02-10T03:46:08.079Z,956.48
2017-02-10T03:47:07.686Z,956.51
2017-02-10T03:48:08.201Z,956.55
2017-02-10T03:49:07.766Z,956.53
2017-02-10T03:50:07.385Z,956.56
2017-02-10T03:51:07.886Z,956.48
2017-02-10T03:52:07.399Z,956.51
2017-02-10T03:53:07.935Z,956.48
2017-02-10T03:54:07.498Z,956.50
2017-02-10T03:55:08.047Z,956.49
2017-02-10T03:56:07.562Z,956.52
2017-02-10T03:57:08.053Z,956.55
2017-02-10T03:58:07.777Z,956.50
2017-02-10T03:59:07.339Z,956.51
2017-02-10T04:00:07.808Z,956.47
2017-02-10T04:01:07.559Z,956.51
2017-02-10T04:02:08.105Z,956.49
2017-02-10T04:03:07.565Z,956.49
2017-02-10T04:04:08.041Z,956.49
2017-02-10T04:05:07.545Z,956.53
2017-02-10T04:06:08.124Z,956.52
2017-02-10T04:07:07.693Z,956.49
2017-02-10T04:08:08.241Z,956.54
2017-02-10T04:09:07.798Z,956.54
2017-02-10T04:10:07.625Z,956.55
2017-02-10T04:11:08.263Z,956.57
2017-02-10T04:12:08.117Z,956.53
2017-02-10T04:13:07.912Z,956.49
2017-02-10T04:14:07.441Z,956.52
2017-02-10T04:15:08.309Z,956.46
2017-02-10T04:16:07.878Z,956.44
2017-02-10T04:17:07.491Z,956.46
2017-02-10T04:18:08.102Z,956.49
2017-02-10T04:19:07.990Z,956.42
2017-02-10T04:20:07.672Z,956.44
2017-02-10T04:21:08.327Z,956.46
2017-02-10T04:22:07.976Z,956.43
2017-02-10T04:23:07.795Z,956.41
2017-02-10T04:24:07.262Z,956.39
2017-02-10T04:25:07.837Z,956.39
2017-02-10T04:26:07.322Z,956.40
2017-02-10T04:27:07.907Z,956.42
2017-02-10T04:28:07.587Z,956.43
2017-02-10T04:29:08.081Z,956.39
2017-02-10T04:30:07.655Z,956.42
2017-02-10T04:31:08.232Z,956.42
2017-02-10T04:32:07.809Z,956.47
2017-02-10T04:33:07.651Z,956.47
2017-02-10T04:34:08.242Z,956.47
2017-02-10T04:35:07.744Z,956.44
2017-02-10T04:36:08.296Z,956.42
2017-02-10T04:37:07.826Z,956.46
2017-02-10T04:38:07.361Z,956.39
2017-02-10T04:39:07.821Z,956.40
2017-02-10T04:40:07.261Z,956.45
2017-02-10T04:41:07.914Z,956.43
2017-02-10T04:42:07.695Z,956.43
2017-02-10T04:43:08.486Z,956.42
2017-02-10T04:44:08.236Z,956.44
2017-02-10T04:45:07.891Z,956.46
2017-02-10T04:46:07.600Z,956.46
2017-02-10T04:47:08.478Z,956.40
2017-02-10T04:48:07.924Z,956.46
2017-02-10T04:49:07.385Z,956.43
2017-02-10T04:50:07.860Z,956.43
2017-02-10T04:51:07.318Z,956.41
2017-02-10T04:52:07.875Z,956.42
2017-02-10T04:53:07.741Z,956.38
2017-02-10T04:54:08.264Z,956.41
2017-02-10T04:55:08.146Z,956.41
2017-02-10T04:56:07.775Z,956.34
2017-02-10T04:57:07.345Z,956.35
2017-02-10T04:58:07.963Z,956.35
2017-02-10T04:59:07.537Z,956.43
2017-02-10T05:00:08.007Z,956.36
2017-02-10T05:01:07.504Z,956.35
2017-02-10T05:02:08.079Z,956.34
2017-02-10T05:03:07.619Z,956.34
2017-02-10T05:04:08.442Z,956.33
2017-02-10T05:05:08.038Z,956.28
2017-02-10T05:06:07.608Z,956.27
2017-02-10T05:07:08.156Z,956.28
2017-02-10T05:08:07.744Z,956.28
2017-02-10T05:09:08.214Z,956.27
2017-02-10T05:10:07.865Z,956.25
2017-02-10T05:11:07.459Z,956.27
2017-02-10T05:12:08.068Z,956.23
2017-02-10T05:13:07.538Z,956.26
2017-02-10T05:14:08.224Z,956.32
2017-02-10T05:15:07.863Z,956.31
2017-02-10T05:16:07.564Z,956.26
2017-02-10T05:17:08.208Z,956.31
2017-02-10T05:18:07.730Z,956.32
2017-02-10T05:19:07.403Z,956.32
2017-02-10T05:20:07.961Z,956.37
2017-02-10T05:21:07.514Z,956.38
2017-02-10T05:22:08.037Z,956.44
2017-02-10T05:23:07.624Z,956.41
2017-02-10T05:24:08.135Z,956.35
2017-02-10T05:25:10.208Z,956.36
2017-02-10T05:26:08.084Z,956.35
2017-02-10T05:27:07.590Z,956.32
2017-02-10T05:28:08.175Z,956.36
2017-02-10T05:29:07.885Z,956.34
2017-02-10T05:30:07.417Z,956.35
2017-02-10T05:31:07.979Z,956.36
2017-02-10T05:32:07.523Z,956.36
2017-02-10T05:33:08.085Z,956.39
2017-02-10T05:34:07.764Z,956.39
2017-02-10T05:35:07.302Z,956.33
2017-02-10T05:36:07.824Z,956.31
2017-02-10T05:37:07.224Z,956.31
2017-02-10T05:38:07.783Z,956.34
2017-02-10T05:39:07.232Z,956.36
2017-02-10T05:40:07.737Z,956.39
2017-02-10T05:41:08.275Z,956.38
2017-02-10T05:42:08.240Z,956.36
2017-02-10T05:43:07.732Z,956.35
2017-02-10T05:44:08.257Z,956.35
2017-02-10T05:45:07.976Z,956.37
2017-02-10T05:46:07.554Z,956.36
2017-02-10T05:47:08.125Z,956.37
2017-02-10T05:48:07.710Z,956.42
2017-02-10T05:49:08.283Z,956.44
2017-02-10T05:50:07.812Z,956.43
2017-02-10T05:51:07.547Z,956.41
2017-02-10T05:52:08.086Z,956.38
2017-02-10T05:53:07.614Z,956.41
2017-02-10T05:54:08.350Z,956.38
2017-02-10T05:55:07.847Z,956.35
2017-02-10T05:56:07.632Z,956.42
2017-02-10T05:57:08.258Z,956.35
2017-02-10T05:58:07.908Z,956.37
2017-02-10T05:59:07.400Z,956.34
2017-02-10T06:00:07.857Z,956.34
2017-02-10T06:01:07.770Z,956.34
2017-02-10T06:02:07.270Z,956.37
2017-02-10T06:03:07.763Z,956.34
2017-02-10T06:04:07.474Z,956.37
2017-02-10T06:05:08.026Z,956.36
2017-02-10T06:06:07.922Z,956.40
2017-02-10T06:07:07.766Z,956.36
2017-02-10T06:08:07.292Z,956.38
2017-02-10T06:09:07.783Z,956.41
2017-02-10T06:10:07.247Z,956.41
2017-02-10T06:11:08.022Z,956.44
2017-02-10T06:12:07.468Z,956.43
2017-02-10T06:13:08.000Z,956.45
2017-02-10T06:14:07.467Z,956.45
2017-02-10T06:15:08.253Z,956.40
2017-02-10T06:16:08.005Z,956.41
2017-02-10T06:17:07.849Z,956.39
2017-02-10T06:18:07.329Z,956.41
2017-02-10T06:19:07.823Z,956.41
2017-02-10T06:20:07.538Z,956.47
2017-02-10T06:21:08.131Z,956.42
2017-02-10T06:22:07.557Z,956.43
2017-02-10T06:23:07.567Z,956.43
2017-02-10T06:24:08.137Z,956.47
2017-02-10T06:25:07.871Z,956.44
2017-02-10T06:26:07.519Z,956.44
2017-02-10T06:27:08.209Z,956.41
2017-02-10T06:28:07.811Z,956.46
2017-02-10T06:29:07.283Z,956.43
2017-02-10T06:30:07.700Z,956.43
2017-02-10T06:31:08.268Z,956.48
2017-02-10T06:32:07.749Z,956.45
2017-02-10T06:33:08.349Z,956.47
2017-02-10T06:34:07.898Z,956.47
2017-02-10T06:35:07.422Z,956.49
2017-02-10T06:36:08.050Z,956.48
2017-02-10T06:37:07.505Z,956.45
2017-02-10T06:38:08.123Z,956.46
2017-02-10T06:39:07.683Z,956.47
2017-02-10T06:40:08.228Z,956.45
2017-02-10T06:41:09.577Z,956.47
2017-02-10T06:42:08.104Z,956.45
2017-02-10T06:43:07.652Z,956.49
2017-02-10T06:44:08.120Z,956.49
2017-02-10T06:45:07.570Z,956.48
2017-02-10T06:46:08.159Z,956.45
2017-02-10T06:47:07.926Z,956.49
2017-02-10T06:48:07.466Z,956.48
2017-02-10T06:49:07.971Z,956.52
2017-02-10T06:50:07.526Z,956.55
2017-02-10T06:51:08.079Z,956.51
2017-02-10T06:52:07.654Z,956.54
2017-02-10T06:53:08.176Z,956.52
2017-02-10T06:54:07.669Z,956.53
2017-02-10T06:55:09.138Z,956.51
2017-02-10T06:56:08.085Z,956.51
2017-02-10T06:57:07.682Z,956.52
2017-02-10T06:58:08.393Z,956.52
2017-02-10T06:59:08.221Z,956.53
2017-02-10T07:00:07.860Z,956.59
2017-02-10T07:01:07.358Z,956.55
2017-02-10T07:02:07.794Z,956.61
2017-02-10T07:03:07.267Z,956.58
2017-02-10T07:04:07.834Z,956.62
2017-02-10T07:05:07.359Z,956.59
2017-02-10T07:06:07.928Z,956.58
2017-02-10T07:07:07.538Z,956.58
2017-02-10T07:08:08.038Z,956.58
2017-02-10T07:09:07.713Z,956.56
2017-02-10T07:10:08.150Z,956.67
2017-02-10T07:11:08.108Z,956.66
2017-02-10T07:12:07.670Z,956.64
2017-02-10T07:13:08.275Z,956.67
2017-02-10T07:14:07.863Z,956.65
2017-02-10T07:15:07.282Z,956.66
2017-02-10T07:16:07.758Z,956.64
2017-02-10T07:17:07.380Z,956.66
2017-02-10T07:18:07.879Z,956.70
2017-02-10T07:19:07.472Z,956.68
2017-02-10T07:20:08.174Z,956.67
2017-02-10T07:21:07.734Z,956.72
2017-02-10T07:22:08.803Z,956.72
2017-02-10T07:23:07.222Z,956.74
2017-02-10T07:24:08.007Z,956.74
2017-02-10T07:25:07.712Z,956.77
2017-02-10T07:26:08.279Z,956.78
2017-02-10T07:27:08.045Z,956.76
2017-02-10T07:28:07.909Z,956.76
2017-02-10T07:29:07.718Z,956.76
2017-02-10T07:30:07.511Z,956.73
2017-02-10T07:31:08.094Z,956.79
2017-02-10T07:32:07.861Z,956.81
2017-02-10T07:33:07.382Z,956.77
2017-02-10T07:34:07.957Z,956.78
2017-02-10T07:35:07.529Z,956.83
2017-02-10T07:36:08.143Z,956.80
2017-02-10T07:37:07.782Z,956.86
2017-02-10T07:38:07.393Z,956.90
2017-02-10T07:39:07.946Z,956.87
2017-02-10T07:40:07.491Z,956.83
2017-02-10T07:41:08.055Z,956.85
2017-02-10T07:42:07.607Z,956.87
2017-02-10T07:43:07.475Z,956.84
2017-02-10T07:44:08.063Z,956.89
2017-02-10T07:45:07.625Z,956.87
2017-02-10T07:46:08.176Z,956.88
2017-02-10T07:47:07.671Z,956.86
2017-02-10T07:48:08.150Z,956.90
2017-02-10T07:49:07.644Z,956.89
2017-02-10T07:50:08.144Z,956.91
2017-02-10T07:51:07.643Z,956.91
2017-02-10T07:52:08.141Z,956.88
2017-02-10T07:53:07.813Z,956.85
2017-02-10T07:54:07.430Z,956.91
2017-02-10T07:55:08.011Z,956.89
2017-02-10T07:56:07.484Z,956.88
2017-02-10T07:57:08.044Z,956.90
2017-02-10T07:58:07.672Z,956.90
2017-02-10T07:59:08.295Z,956.91
2017-02-10T08:00:07.979Z,956.89
2017-02-10T08:01:07.516Z,956.89
2017-02-10T08:02:08.203Z,956.90
2017-02-10T08:03:07.780Z,956.93
2017-02-10T08:04:07.354Z,956.95
2017-02-10T08:05:07.917Z,956.95
2017-02-10T08:06:07.443Z,956.96
2017-02-10T08:07:07.943Z,956.95
2017-02-10T08:08:07.495Z,956.95
2017-02-10T08:09:08.061Z,956.97
2017-02-10T08:10:07.678Z,957.00
2017-02-10T08:11:08.195Z,957.00
2017-02-10T08:12:07.820Z,957.00
2017-02-10T08:13:07.336Z,956.99
2017-02-10T08:14:07.778Z,957.03
2017-02-10T08:15:07.706Z,956.98
2017-02-10T08:16:08.254Z,956.97
2017-02-10T08:17:07.933Z,956.96
2017-02-10T08:18:07.388Z,957.00
2017-02-10T08:19:08.021Z,956.96
2017-02-10T08:20:07.604Z,956.99
2017-02-10T08:21:08.184Z,956.97
2017-02-10T08:22:07.695Z,956.94
2017-02-10T08:23:08.324Z,956.94
2017-02-10T08:24:08.093Z,957.02
2017-02-10T08:25:07.742Z,956.95
2017-02-10T08:26:07.197Z,956.96
2017-02-10T08:27:07.752Z,956.99
2017-02-10T08:28:08.386Z,956.99
2017-02-10T08:29:08.004Z,957.01
2017-02-10T08:30:07.579Z,957.01
2017-02-10T08:31:08.126Z,956.96
2017-02-10T08:32:07.675Z,956.95
2017-02-10T08:33:08.232Z,956.92
2017-02-10T08:34:08.032Z,956.90
2017-02-10T08:35:07.574Z,956.87
2017-02-10T08:36:08.201Z,956.90
2017-02-10T08:37:07.712Z,956.94
2017-02-10T08:38:08.285Z,956.91
2017-02-10T08:39:07.826Z,956.95
2017-02-10T08:40:07.360Z,956.89
2017-02-10T08:41:07.953Z,956.94
2017-02-10T08:42:07.524Z,956.88
2017-02-10T08:43:08.160Z,956.93
2017-02-10T08:44:07.628Z,956.91
2017-02-10T08:45:08.473Z,956.92
2017-02-10T08:46:08.011Z,956.91
2017-02-10T08:47:07.764Z,956.96
2017-02-10T08:48:07.240Z,956.99
2017-02-10T08:49:07.807Z,956.99
2017-02-10T08:50:07.280Z,956.99
2017-02-10T08:51:07.887Z,956.98
2017-02-10T08:52:07.420Z,956.98
2017-02-10T08:53:08.042Z,957.04
2017-02-10T08:54:07.562Z,957.03
2017-02-10T08:55:08.097Z,957.00
2017-02-10T08:56:07.736Z,956.97
2017-02-10T08:57:08.276Z,956.97
2017-02-10T08:58:07.880Z,956.98
2017-02-10T08:59:07.358Z,957.00
2017-02-10T09:00:07.926Z,957.00
2017-02-10T09:01:07.405Z,956.99
2017-02-10T09:02:07.871Z,957.04
2017-02-10T09:03:07.488Z,957.02
2017-02-10T09:04:08.059Z,957.00
2017-02-10T09:05:07.903Z,956.98
2017-02-10T09:06:07.697Z,956.99
2017-02-10T09:07:08.244Z,956.95
2017-02-10T09:08:07.972Z,956.99
2017-02-10T09:09:07.555Z,956.96
2017-02-10T09:10:08.084Z,956.99
2017-02-10T09:11:07.686Z,956.99
2017-02-10T09:12:08.225Z,957.01
2017-02-10T09:13:07.832Z,957.03
2017-02-10T09:14:07.394Z,957.03
2017-02-10T09:15:07.907Z,957.02
2017-02-10T09:16:07.503Z,956.98
2017-02-10T09:17:08.296Z,956.98
2017-02-10T09:18:07.914Z,957.00
2017-02-10T09:19:07.543Z,957.04
2017-02-10T09:20:08.191Z,957.00
2017-02-10T09:21:07.714Z,956.96
2017-02-10T09:22:08.313Z,956.98
2017-02-10T09:23:07.777Z,956.94
2017-02-10T09:24:07.373Z,956.96
2017-02-10T09:25:07.835Z,957.02
2017-02-10T09:26:07.433Z,956.98
2017-02-10T09:27:08.258Z,956.99
2017-02-10T09:28:08.076Z,957.02
2017-02-10T09:29:07.913Z,957.00
2017-02-10T09:30:07.638Z,957.06
2017-02-10T09:31:08.212Z,957.02
2017-02-10T09:32:07.266Z,957.07
2017-02-10T09:33:07.852Z,957.05
2017-02-10T09:34:07.450Z,957.07
2017-02-10T09:35:07.933Z,957.04
2017-02-10T09:36:07.438Z,957.08
2017-02-10T09:37:07.952Z,957.03
2017-02-10T09:38:07.424Z,957.00
2017-02-10T09:39:07.954Z,956.98
2017-02-10T09:40:07.489Z,956.99
2017-02-10T09:41:08.002Z,956.99
2017-02-10T09:42:07.567Z,956.99
2017-02-10T09:43:08.137Z,956.96
2017-02-10T09:44:07.701Z,956.92
2017-02-10T09:45:08.166Z,956.97
2017-02-10T09:46:07.719Z,956.97
2017-02-10T09:47:08.214Z,956.98
2017-02-10T09:48:07.723Z,957.01
2017-02-10T09:49:08.273Z,956.96
2017-02-10T09:50:08.146Z,957.02
2017-02-10T09:51:07.834Z,956.96
2017-02-10T09:52:07.267Z,956.98
2017-02-10T09:53:07.854Z,956.99
2017-02-10T09:54:17.413Z,957.02
2017-02-10T09:55:07.975Z,957.00
2017-02-10T09:56:07.472Z,957.06
2017-02-10T09:57:07.967Z,957.09
2017-02-10T09:58:07.634Z,957.12
2017-02-10T09:59:08.251Z,957.11
2017-02-10T10:00:07.723Z,957.15
2017-02-10T10:01:07.636Z,957.14
2017-02-10T10:02:08.468Z,957.10
2017-02-10T10:03:08.303Z,957.12
2017-02-10T10:04:07.833Z,957.11
2017-02-10T10:05:07.306Z,957.07
2017-02-10T10:06:07.888Z,957.14
2017-02-10T10:07:07.450Z,957.15
2017-02-10T10:08:07.956Z,957.16
2017-02-10T10:09:07.407Z,957.20
2017-02-10T10:10:07.956Z,957.21
2017-02-10T10:11:07.785Z,957.15
2017-02-10T10:12:07.636Z,957.18
2017-02-10T10:13:08.230Z,957.17
2017-02-10T10:14:07.806Z,957.19
2017-02-10T10:15:07.485Z,957.20
2017-02-10T10:16:08.046Z,957.20
2017-02-10T10:17:07.703Z,957.19
2017-02-10T10:18:08.293Z,957.20
2017-02-10T10:19:07.829Z,957.18
2017-02-10T10:20:07.326Z,957.19
2017-02-10T10:21:07.833Z,957.21
2017-02-10T10:22:07.672Z,957.18
2017-02-10T10:23:08.394Z,957.18
2017-02-10T10:24:08.162Z,957.18
2017-02-10T10:25:07.650Z,957.12
2017-02-10T10:26:08.522Z,957.14
2017-02-10T10:27:08.066Z,957.15
2017-02-10T10:28:07.645Z,957.18
2017-02-10T10:29:08.244Z,957.20
2017-02-10T10:30:07.707Z,957.13
2017-02-10T10:31:25.868Z,957.17
2017-02-10T10:32:07.762Z,957.15
2017-02-10T10:33:08.337Z,957.13
2017-02-10T10:34:07.798Z,957.15
2017-02-10T10:35:07.689Z,957.12
2017-02-10T10:36:08.258Z,957.15
2017-02-10T10:37:20.524Z,957.11
2017-02-10T10:38:07.987Z,957.10
2017-02-10T10:39:07.587Z,957.06
2017-02-10T10:40:08.182Z,957.05
2017-02-10T10:41:07.729Z,957.05
2017-02-10T10:42:08.352Z,957.08
2017-02-10T10:43:07.860Z,957.07
2017-02-10T10:44:07.577Z,957.13
2017-02-10T10:45:08.034Z,957.11
2017-02-10T10:46:07.794Z,957.08
2017-02-10T10:47:07.263Z,957.09
2017-02-10T10:48:07.797Z,957.06
2017-02-10T10:49:07.242Z,957.07
2017-02-10T10:50:07.827Z,957.03
2017-02-10T10:51:07.319Z,957.03
2017-02-10T10:52:07.826Z,957.02
2017-02-10T10:53:07.273Z,957.03
2017-02-10T10:54:07.751Z,957.05
2017-02-10T10:55:08.247Z,957.03
2017-02-10T10:56:07.781Z,956.99
2017-02-10T10:57:07.529Z,956.97
2017-02-10T10:58:08.184Z,956.99
2017-02-10T10:59:07.733Z,956.96
2017-02-10T11:00:08.271Z,957.00
2017-02-10T11:01:07.748Z,957.02
2017-02-10T11:02:08.227Z,957.00
2017-02-10T11:03:07.677Z,956.99
2017-02-10T11:04:08.173Z,956.98
2017-02-10T11:05:07.972Z,956.99
2017-02-10T11:06:07.456Z,956.94
2017-02-10T11:07:08.166Z,956.96
2017-02-10T11:08:07.914Z,956.93
2017-02-10T11:09:07.388Z,956.95
2017-02-10T11:10:08.086Z,956.93
2017-02-10T11:11:07.591Z,956.96
2017-02-10T11:12:08.092Z,956.97
2017-02-10T11:13:07.683Z,956.97
2017-02-10T11:14:08.244Z,956.93
2017-02-10T11:15:07.813Z,956.92
2017-02-10T11:16:07.481Z,957.01
2017-02-10T11:17:08.108Z,956.99
2017-02-10T11:18:07.833Z,957.00
2017-02-10T11:19:07.399Z,956.96
2017-02-10T11:20:08.020Z,956.98
2017-02-10T11:21:07.515Z,956.97
2017-02-10T11:22:08.085Z,956.98
2017-02-10T11:23:07.638Z,956.97
2017-02-10T11:24:08.186Z,956.98
2017-02-10T11:25:07.757Z,956.95
2017-02-10T11:26:07.603Z,956.95
2017-02-10T11:27:08.220Z,956.99
2017-02-10T11:28:07.872Z,956.98
2017-02-10T11:29:07.693Z,957.00
2017-02-10T11:30:08.262Z,956.99
2017-02-10T11:31:07.738Z,956.96
2017-02-10T11:32:08.333Z,956.95
2017-02-10T11:33:07.957Z,956.92
2017-02-10T11:34:07.463Z,956.96
2017-02-10T11:35:08.050Z,956.94
2017-02-10T11:36:07.899Z,956.94
2017-02-10T11:37:07.480Z,956.98
2017-02-10T11:38:08.388Z,956.95
2017-02-10T11:39:07.951Z,957.00
2017-02-10T11:40:07.806Z,957.02
2017-02-10T11:41:07.321Z,957.05
2017-02-10T11:42:07.886Z,957.02
2017-02-10T11:43:07.445Z,957.05
2017-02-10T11:44:08.077Z,957.02
2017-02-10T11:45:07.589Z,957.03
2017-02-10T11:46:08.142Z,957.02
2017-02-10T11:47:07.764Z,956.98
2017-02-10T11:48:07.526Z,956.97
2017-02-10T11:49:08.146Z,956.98
2017-02-10T11:50:07.734Z,956.99
2017-02-10T11:51:08.279Z,957.00
2017-02-10T11:52:07.706Z,956.94
2017-02-10T11:53:08.271Z,957.00
2017-02-10T11:54:08.094Z,957.00
2017-02-10T11:55:07.542Z,956.99
2017-02-10T11:56:08.059Z,957.04
2017-02-10T11:57:07.602Z,956.98
2017-02-10T11:58:08.232Z,957.02
2017-02-10T11:59:07.842Z,957.05
2017-02-10T12:00:07.593Z,957.05
2017-02-10T12:01:08.175Z,957.07
2017-02-10T12:02:07.629Z,957.08
2017-02-10T12:03:08.108Z,956.98
2017-02-10T12:04:07.626Z,957.02
2017-02-10T12:05:08.237Z,957.03
2017-02-10T12:06:07.778Z,957.03
2017-02-10T12:07:07.337Z,957.05
2017-02-10T12:08:07.837Z,957.05
2017-02-10T12:09:07.672Z,957.00
2017-02-10T12:10:08.174Z,956.95
2017-02-10T12:11:07.830Z,956.94
2017-02-10T12:12:07.475Z,956.90
2017-02-10T12:13:07.974Z,956.89
2017-02-10T12:14:07.433Z,956.87
2017-02-10T12:15:08.000Z,956.87
2017-02-10T12:16:07.457Z,956.89
2017-02-10T12:17:08.076Z,956.90
2017-02-10T12:18:07.596Z,956.84
2017-02-10T12:19:08.091Z,956.85
2017-02-10T12:20:07.575Z,956.86
2017-02-10T12:21:08.348Z,956.81
2017-02-10T12:22:08.005Z,956.79
2017-02-10T12:23:07.477Z,956.77
2017-02-10T12:24:08.011Z,956.74
2017-02-10T12:25:07.464Z,956.78
2017-02-10T12:26:07.993Z,956.78
2017-02-10T12:27:07.577Z,956.80
2017-02-10T12:28:08.224Z,956.82